Time;durP1;ratioP1;P1;durP2;ratioP2;P2;SDS_P1;SDS_P2;PMS_P1;PMS_P2;Temp;Humidity;BMP_temperature;BMP_pressure;BME280_temperature;BME280_humidity;BME280_pressure;Samples;Min_cycle;Max_cycle;Signal;HPM_P1;HPM_P2
2023/05/06 00:00:27;;;;;;;3.40;1.10;;;20.60;59.50;;;;;;4992384;28;20592;-65
2023/05/06 00:02:54;;;;;;;4.07;1.17;;;20.60;59.50;;;;;;4992922;28;20046;-65
2023/05/06 00:05:19;;;;;;;2.83;0.98;;;20.50;59.40;;;;;;4992081;28;20053;-65
2023/05/06 00:07:45;;;;;;;3.97;0.85;;;20.60;59.40;;;;;;4992688;28;20121;-65
2023/05/06 00:10:11;;;;;;;1.65;0.77;;;20.50;59.30;;;;;;4992340;28;20038;-65
2023/05/06 00:12:37;;;;;;;2.03;0.80;;;20.50;59.40;;;;;;4992159;28;20042;-65
2023/05/06 00:15:03;;;;;;;2.95;1.00;;;20.50;59.40;;;;;;4992723;28;20061;-65
2023/05/06 00:17:28;;;;;;;3.45;0.88;;;20.50;59.40;;;;;;4992780;28;20053;-65
2023/05/06 00:19:55;;;;;;;2.05;0.93;;;20.50;59.40;;;;;;4992252;28;20042;-65
2023/05/06 00:22:20;;;;;;;2.75;0.90;;;20.50;59.30;;;;;;4992509;28;20042;-65
2023/05/06 00:24:46;;;;;;;2.33;0.82;;;20.50;59.30;;;;;;4993145;28;20169;-65
2023/05/06 00:27:12;;;;;;;3.22;1.10;;;20.50;59.30;;;;;;4991856;28;20046;-65
2023/05/06 00:29:37;;;;;;;2.47;0.80;;;20.50;59.30;;;;;;4992786;28;20402;-65
2023/05/06 00:32:03;;;;;;;1.83;0.95;;;20.50;59.30;;;;;;4992935;28;20508;-65
2023/05/06 00:34:29;;;;;;;1.52;0.80;;;20.50;59.30;;;;;;4990797;28;20406;-64
2023/05/06 00:36:54;;;;;;;1.98;0.80;;;20.50;59.30;;;;;;4992934;28;20034;-65
2023/05/06 00:39:20;;;;;;;2.97;0.88;;;20.50;59.20;;;;;;4992401;28;20050;-65
2023/05/06 00:41:46;;;;;;;1.92;0.80;;;20.50;59.20;;;;;;4992082;28;20046;-65
2023/05/06 00:44:11;;;;;;;1.70;0.80;;;20.50;59.20;;;;;;4992094;28;20092;-64
2023/05/06 00:46:37;;;;;;;2.53;0.95;;;20.40;59.20;;;;;;4996627;28;20142;-64
2023/05/06 00:49:02;;;;;;;2.78;0.98;;;20.40;59.10;;;;;;4995831;28;20133;-64
2023/05/06 00:51:28;;;;;;;2.72;0.90;;;20.40;59.10;;;;;;4996365;28;20088;-64
2023/05/06 00:53:54;;;;;;;1.42;0.75;;;20.40;59.10;;;;;;4994660;28;20042;-65
2023/05/06 00:56:19;;;;;;;2.30;0.90;;;20.40;59.10;;;;;;4994783;28;20553;-64
2023/05/06 00:58:45;;;;;;;2.33;0.82;;;20.40;59.10;;;;;;4996092;28;20053;-64
2023/05/06 01:01:11;;;;;;;1.75;0.80;;;20.40;59.10;;;;;;4994990;28;20053;-64
2023/05/06 01:03:37;;;;;;;1.85;0.80;;;20.40;59.10;;;;;;5011421;28;20053;-64
2023/05/06 01:06:23;;;;;;;1.20;0.73;;;20.40;59.10;;;;;;4996347;28;20058;-64
2023/05/06 01:09:32;;;;;;;1.73;0.80;;;20.40;59.00;;;;;;4995709;28;20050;-64
2023/05/06 01:12:13;;;;;;;2.03;0.80;;;20.40;58.90;;;;;;4978935;28;20034;-65
2023/05/06 01:14:56;;;;;;;1.75;0.65;;;20.40;59.00;;;;;;5003202;28;20046;-64
2023/05/06 01:17:23;;;;;;;1.73;0.80;;;20.40;59.00;;;;;;5013887;28;20085;-65
2023/05/06 01:19:48;;;;;;;1.30;0.77;;;20.30;59.00;;;;;;5014353;28;20143;-64
2023/05/06 01:22:14;;;;;;;2.75;0.85;;;20.30;59.00;;;;;;5013335;28;20484;-64
2023/05/06 01:24:41;;;;;;;2.55;0.90;;;20.30;58.90;;;;;;5013786;28;20038;-64
2023/05/06 01:27:08;;;;;;;1.35;0.80;;;20.30;58.90;;;;;;4995849;28;20052;-65
2023/05/06 01:29:35;;;;;;;1.27;0.70;;;20.30;58.90;;;;;;4994817;28;20054;-64
2023/05/06 01:32:20;;;;;;;1.83;0.90;;;20.30;58.90;;;;;;5008029;28;20073;-64
2023/05/06 01:34:55;;;;;;;2.25;0.85;;;20.30;58.80;;;;;;5030410;28;20789;-64
2023/05/06 01:37:24;;;;;;;1.58;0.70;;;20.30;58.80;;;;;;4997108;28;20042;-65
2023/05/06 01:39:51;;;;;;;1.90;0.73;;;20.30;58.90;;;;;;5015024;28;20049;-64
2023/05/06 01:42:16;;;;;;;1.75;0.70;;;20.30;58.90;;;;;;5013506;28;20053;-64
2023/05/06 01:44:42;;;;;;;1.88;0.80;;;20.30;58.80;;;;;;4996621;28;20057;-65
2023/05/06 01:47:08;;;;;;;2.13;0.60;;;20.30;58.80;;;;;;4997057;28;20152;-64
2023/05/06 01:49:33;;;;;;;2.17;0.85;;;20.30;58.80;;;;;;4997745;28;20481;-64
2023/05/06 01:51:59;;;;;;;2.85;0.90;;;20.30;58.90;;;;;;5012945;28;20089;-64
2023/05/06 01:54:24;;;;;;;1.67;0.93;;;20.30;58.90;;;;;;5013306;28;20042;-64
2023/05/06 01:56:50;;;;;;;1.63;0.75;;;20.20;58.80;;;;;;5014033;28;20041;-64
2023/05/06 01:59:15;;;;;;;2.30;0.80;;;20.20;58.70;;;;;;5013449;28;20119;-64
2023/05/06 02:01:41;;;;;;;2.33;0.90;;;20.20;58.70;;;;;;5012520;28;20050;-64
2023/05/06 02:04:06;;;;;;;2.47;0.80;;;20.20;58.80;;;;;;5013755;28;20037;-65
2023/05/06 02:06:32;;;;;;;2.10;0.70;;;20.20;58.70;;;;;;5013630;28;20049;-64
2023/05/06 02:08:57;;;;;;;2.38;0.80;;;20.20;58.70;;;;;;5013305;28;20065;-64
2023/05/06 02:11:23;;;;;;;1.27;0.80;;;20.20;58.70;;;;;;5013364;28;20042;-64
2023/05/06 02:13:48;;;;;;;1.65;0.80;;;20.20;58.70;;;;;;5013377;28;20042;-64
2023/05/06 02:16:14;;;;;;;1.38;0.70;;;20.20;58.80;;;;;;5013754;28;20038;-64
2023/05/06 02:18:40;;;;;;;1.92;0.80;;;20.20;58.70;;;;;;5014070;28;20045;-64
2023/05/06 02:21:06;;;;;;;1.17;0.60;;;20.20;58.70;;;;;;5013919;28;20463;-65
2023/05/06 02:23:32;;;;;;;1.48;0.90;;;20.20;58.80;;;;;;5014464;28;20125;-65
2023/05/06 02:25:57;;;;;;;1.85;0.80;;;20.20;58.70;;;;;;5012235;28;20121;-64
2023/05/06 02:28:24;;;;;;;1.15;0.65;;;20.20;58.70;;;;;;5013879;28;20132;-64
2023/05/06 02:30:53;;;;;;;1.25;0.70;;;20.20;59.40;;;;;;5008106;28;20050;-65
2023/05/06 02:33:19;;;;;;;1.77;0.80;;;20.20;58.70;;;;;;4992619;28;20038;-64
2023/05/06 02:35:45;;;;;;;2.13;0.80;;;20.20;58.70;;;;;;4994829;28;20556;-65
2023/05/06 02:38:10;;;;;;;1.17;0.70;;;20.20;58.70;;;;;;4994021;28;20039;-65
2023/05/06 02:40:36;;;;;;;2.30;0.85;;;20.10;58.70;;;;;;4993706;28;20072;-64
2023/05/06 02:43:01;;;;;;;1.50;0.80;;;20.10;58.60;;;;;;4994274;28;20042;-65
2023/05/06 02:45:27;;;;;;;1.17;0.77;;;20.10;58.60;;;;;;4994306;28;20042;-65
2023/05/06 02:47:52;;;;;;;1.90;0.80;;;20.10;58.60;;;;;;4993674;28;20058;-65
2023/05/06 02:50:18;;;;;;;1.77;0.70;;;20.10;58.50;;;;;;4994170;28;20073;-64
2023/05/06 02:52:43;;;;;;;1.77;0.85;;;20.10;58.50;;;;;;4992965;28;20042;-64
2023/05/06 02:55:09;;;;;;;1.45;0.60;;;20.10;58.60;;;;;;4993213;28;20181;-64
2023/05/06 02:57:35;;;;;;;1.13;0.63;;;20.10;58.60;;;;;;4994052;28;20077;-64
2023/05/06 03:00:00;;;;;;;2.53;0.80;;;20.10;58.60;;;;;;4993730;28;20089;-64
2023/05/06 03:02:26;;;;;;;1.58;0.77;;;20.10;58.50;;;;;;4991910;28;20046;-65
2023/05/06 03:04:51;;;;;;;1.60;0.90;;;20.10;58.60;;;;;;4994084;28;20046;-64
2023/05/06 03:07:17;;;;;;;1.52;0.80;;;20.10;58.50;;;;;;4992891;28;20049;-64
2023/05/06 03:09:42;;;;;;;1.85;0.80;;;20.10;58.50;;;;;;4991887;28;20074;-65
2023/05/06 03:12:08;;;;;;;1.30;0.70;;;20.10;58.60;;;;;;4993438;28;20085;-63
2023/05/06 03:14:33;;;;;;;1.92;0.70;;;20.10;58.50;;;;;;4993171;28;20445;-65
2023/05/06 03:16:59;;;;;;;1.10;0.77;;;20.00;58.40;;;;;;4994041;28;20046;-64
2023/05/06 03:19:24;;;;;;;1.95;0.80;;;20.10;58.50;;;;;;4993748;28;20128;-65
2023/05/06 03:21:50;;;;;;;1.10;0.70;;;20.00;58.40;;;;;;4993127;28;20053;-64
2023/05/06 03:24:15;;;;;;;1.15;0.80;;;20.00;58.30;;;;;;4992004;28;20375;-64
2023/05/06 03:26:41;;;;;;;2.13;1.00;;;20.00;58.40;;;;;;5007708;28;20078;-64
2023/05/06 03:29:07;;;;;;;1.38;0.73;;;20.00;58.30;;;;;;4992170;28;20093;-65
2023/05/06 03:31:32;;;;;;;1.05;0.77;;;20.00;58.30;;;;;;4993500;28;20125;-64
2023/05/06 03:33:58;;;;;;;2.00;0.80;;;20.00;58.40;;;;;;4993945;28;20042;-64
2023/05/06 03:36:24;;;;;;;2.28;0.95;;;20.00;58.30;;;;;;4992599;28;20426;-64
2023/05/06 03:38:50;;;;;;;1.35;0.73;;;20.00;58.40;;;;;;4993688;28;20038;-64
2023/05/06 03:41:16;;;;;;;1.13;0.70;;;20.00;58.40;;;;;;4992886;28;20078;-64
2023/05/06 03:43:42;;;;;;;1.17;0.80;;;20.00;58.40;;;;;;4992701;28;20493;-64
2023/05/06 03:46:08;;;;;;;1.20;0.77;;;20.00;58.30;;;;;;4992806;28;20458;-65
2023/05/06 03:48:33;;;;;;;0.98;0.68;;;20.00;58.30;;;;;;4993349;28;20540;-64
2023/05/06 03:50:59;;;;;;;1.35;0.70;;;20.00;58.30;;;;;;4992481;28;20508;-65
2023/05/06 03:53:24;;;;;;;1.42;0.70;;;20.00;58.30;;;;;;4991803;28;20046;-64
2023/05/06 03:55:50;;;;;;;1.58;0.70;;;20.00;58.30;;;;;;4992180;28;20042;-64
2023/05/06 03:58:15;;;;;;;1.23;0.80;;;20.00;58.30;;;;;;4990913;28;20046;-64
2023/05/06 04:00:41;;;;;;;1.35;0.70;;;20.00;58.30;;;;;;4997562;28;20409;-64
2023/05/06 04:03:06;;;;;;;1.45;0.80;;;20.00;58.30;;;;;;5021823;28;20042;-65
2023/05/06 04:05:32;;;;;;;2.00;0.85;;;19.90;58.30;;;;;;4991340;28;20132;-64
2023/05/06 04:07:58;;;;;;;0.90;0.70;;;19.90;58.30;;;;;;4991160;28;20046;-64
2023/05/06 04:10:23;;;;;;;1.08;0.60;;;19.90;58.20;;;;;;4991443;28;20192;-65
2023/05/06 04:12:49;;;;;;;1.27;0.70;;;19.90;58.30;;;;;;4992490;28;20066;-64
2023/05/06 04:15:14;;;;;;;1.35;0.75;;;19.90;58.30;;;;;;4991204;28;20065;-64
2023/05/06 04:17:40;;;;;;;1.10;0.63;;;19.90;58.20;;;;;;4991640;28;20042;-65
2023/05/06 04:20:06;;;;;;;0.93;0.60;;;19.90;58.20;;;;;;4991801;28;20038;-65
2023/05/06 04:22:32;;;;;;;2.42;0.70;;;19.90;58.30;;;;;;4992948;28;20042;-64
2023/05/06 04:24:59;;;;;;;1.85;0.70;;;19.90;58.20;;;;;;4992015;28;20052;-64
2023/05/06 04:27:26;;;;;;;1.05;0.80;;;19.90;58.30;;;;;;4991325;28;20490;-65
2023/05/06 04:29:52;;;;;;;1.95;0.75;;;19.90;58.30;;;;;;4992630;28;20043;-64
2023/05/06 04:32:18;;;;;;;0.90;0.60;;;19.90;58.30;;;;;;4991892;28;20088;-65
2023/05/06 04:34:46;;;;;;;1.67;0.80;;;19.90;58.30;;;;;;4992695;28;20054;-65
2023/05/06 04:37:12;;;;;;;1.42;0.80;;;19.90;58.30;;;;;;4991419;28;20149;-64
2023/05/06 04:39:38;;;;;;;1.25;0.75;;;19.90;58.30;;;;;;4991879;28;20089;-65
2023/05/06 04:42:03;;;;;;;1.00;0.60;;;19.90;58.30;;;;;;4992943;28;20077;-64
2023/05/06 04:44:29;;;;;;;0.73;0.60;;;19.90;58.30;;;;;;4991205;28;20501;-64
2023/05/06 04:46:55;;;;;;;1.30;0.90;;;19.90;58.30;;;;;;4991965;28;20042;-65
2023/05/06 04:49:21;;;;;;;1.17;0.73;;;19.90;58.30;;;;;;5007235;28;20039;-65
2023/05/06 04:51:46;;;;;;;0.77;0.65;;;19.90;58.30;;;;;;4992571;28;20129;-65
2023/05/06 04:54:12;;;;;;;1.02;0.70;;;19.90;58.30;;;;;;4991607;28;20038;-65
2023/05/06 04:56:37;;;;;;;1.58;0.70;;;19.90;58.30;;;;;;4992813;28;20108;-65
2023/05/06 04:59:03;;;;;;;0.82;0.60;;;19.90;58.30;;;;;;4991320;28;20077;-65
2023/05/06 05:01:28;;;;;;;0.45;0.45;;;19.90;58.40;;;;;;4991363;28;20107;-65
2023/05/06 05:03:54;;;;;;;1.98;0.70;;;19.90;58.30;;;;;;4992650;28;20126;-65
2023/05/06 05:06:20;;;;;;;1.48;0.70;;;19.90;58.30;;;;;;4992097;28;20038;-65
2023/05/06 05:08:45;;;;;;;0.70;0.60;;;19.90;58.40;;;;;;4991740;28;20050;-65
2023/05/06 05:11:11;;;;;;;1.75;0.73;;;19.90;58.40;;;;;;4992408;28;20068;-65
2023/05/06 05:13:36;;;;;;;1.02;0.60;;;19.90;58.40;;;;;;4992428;28;20082;-65
2023/05/06 05:16:02;;;;;;;1.88;0.70;;;19.90;58.40;;;;;;4991692;28;20146;-65
2023/05/06 05:18:28;;;;;;;1.10;0.73;;;20.00;58.40;;;;;;4991884;28;20050;-65
2023/05/06 05:20:53;;;;;;;1.83;0.70;;;20.00;58.40;;;;;;4992584;28;20042;-65
2023/05/06 05:23:19;;;;;;;1.33;0.80;;;20.00;58.40;;;;;;4991427;28;20046;-65
2023/05/06 05:25:45;;;;;;;0.90;0.68;;;20.00;58.50;;;;;;4992501;28;20070;-65
2023/05/06 05:28:10;;;;;;;0.70;0.60;;;20.00;58.50;;;;;;5006652;28;20512;-65
2023/05/06 05:30:36;;;;;;;1.45;0.70;;;20.00;58.50;;;;;;5012308;28;20132;-65
2023/05/06 05:33:01;;;;;;;1.02;0.80;;;20.00;58.50;;;;;;5015144;28;20080;-65
2023/05/06 05:35:27;;;;;;;1.27;0.70;;;20.00;58.50;;;;;;5014301;28;20043;-65
2023/05/06 05:37:53;;;;;;;1.40;0.70;;;20.00;58.50;;;;;;5015004;28;20498;-65
2023/05/06 05:40:18;;;;;;;0.90;0.60;;;20.10;58.60;;;;;;5014926;28;20398;-65
2023/05/06 05:42:44;;;;;;;0.80;0.70;;;20.10;58.50;;;;;;5014489;28;20088;-65
2023/05/06 05:45:10;;;;;;;2.15;0.80;;;20.10;58.50;;;;;;5014733;28;20076;-65
2023/05/06 05:47:36;;;;;;;1.00;0.70;;;20.10;58.60;;;;;;5004900;28;20038;-65
2023/05/06 05:50:01;;;;;;;0.85;0.65;;;20.10;59.30;;;;;;4994729;28;20133;-65
2023/05/06 05:52:27;;;;;;;1.20;0.50;;;20.10;58.60;;;;;;4995165;28;20050;-65
2023/05/06 05:54:52;;;;;;;1.63;0.90;;;20.10;58.50;;;;;;4994144;28;20054;-65
2023/05/06 05:57:18;;;;;;;1.05;0.70;;;20.10;58.60;;;;;;4994538;28;20061;-65
2023/05/06 05:59:43;;;;;;;1.45;0.80;;;20.10;58.60;;;;;;4993676;28;20058;-65
2023/05/06 06:02:09;;;;;;;1.65;0.70;;;20.10;58.60;;;;;;4995033;28;20038;-65
2023/05/06 06:04:34;;;;;;;1.42;0.70;;;20.10;58.70;;;;;;4994544;28;20058;-65
2023/05/06 06:07:03;;;;;;;1.17;0.80;;;20.10;58.60;;;;;;4993826;28;20092;-64
2023/05/06 06:09:28;;;;;;;;;;;20.10;58.60;;;;;;4995349;28;20046;-62
2023/05/06 06:11:54;;;;;;;1.85;0.95;;;20.10;58.60;;;;;;4994539;28;19922;-61
2023/05/06 06:14:19;;;;;;;3.63;1.00;;;20.10;58.60;;;;;;4993176;28;20405;-64
2023/05/06 06:16:45;;;;;;;3.00;1.02;;;20.20;58.60;;;;;;4995037;28;20074;-64
2023/05/06 06:19:10;;;;;;;2.72;0.80;;;20.20;58.60;;;;;;4992748;28;20046;-63
2023/05/06 06:21:36;;;;;;;2.45;0.80;;;20.20;58.70;;;;;;4977490;28;20467;-64
2023/05/06 06:24:02;;;;;;;4.35;1.02;;;20.20;58.70;;;;;;4995080;28;20460;-65
2023/05/06 06:26:27;;;;;;;3.83;1.00;;;20.20;58.90;;;;;;4993862;28;20478;-65
2023/05/06 06:28:53;;;;;;;2.67;0.93;;;20.20;59.10;;;;;;4994617;28;20137;-65
2023/05/06 06:31:18;;;;;;;2.17;0.93;;;20.30;59.20;;;;;;4994301;28;20070;-65
2023/05/06 06:33:44;;;;;;;1.77;0.90;;;20.30;59.30;;;;;;5007989;28;20042;-64
2023/05/06 06:36:09;;;;;;;2.75;0.90;;;20.30;59.30;;;;;;5014210;28;20429;-64
2023/05/06 06:38:35;;;;;;;2.75;0.85;;;20.30;59.90;;;;;;5013071;28;20122;-65
2023/05/06 06:41:01;;;;;;;3.15;1.00;;;20.30;59.40;;;;;;5013997;28;20379;-66
2023/05/06 06:43:26;;;;;;;3.42;0.80;;;20.30;59.60;;;;;;4997341;28;20073;-64
2023/05/06 06:45:52;;;;;;;4.85;1.00;;;20.30;59.70;;;;;;4993498;28;20038;-66
2023/05/06 06:48:18;;;;;;;1.70;1.00;;;20.40;59.90;;;;;;4994142;28;20046;-64
2023/05/06 06:50:43;;;;;;;3.85;1.00;;;20.40;60.00;;;;;;4994468;28;20042;-64
2023/05/06 06:53:09;;;;;;;4.43;1.00;;;20.40;60.00;;;;;;4991964;28;20048;-65
2023/05/06 06:55:35;;;;;;;2.50;0.80;;;20.40;60.00;;;;;;4994588;28;20065;-65
2023/05/06 06:58:01;;;;;;;1.88;0.82;;;20.40;60.10;;;;;;4994410;28;20470;-65
2023/05/06 07:00:27;;;;;;;2.20;0.80;;;20.40;60.20;;;;;;4992511;28;20410;-65
2023/05/06 07:02:52;;;;;;;1.23;0.70;;;20.50;60.30;;;;;;4994173;28;20073;-65
2023/05/06 07:05:18;;;;;;;1.75;0.73;;;20.50;60.30;;;;;;4993777;28;20487;-64
2023/05/06 07:07:43;;;;;;;2.08;0.75;;;20.50;60.40;;;;;;4993469;28;20053;-65
2023/05/06 07:10:09;;;;;;;4.43;0.82;;;20.50;60.30;;;;;;4992298;28;20104;-64
2023/05/06 07:12:35;;;;;;;2.58;0.90;;;20.50;60.40;;;;;;4994060;28;20170;-65
2023/05/06 07:15:05;;;;;;;3.03;1.00;;;20.50;60.40;;;;;;4991677;28;20092;-64
2023/05/06 07:17:31;;;;;;;3.25;0.93;;;20.50;60.40;;;;;;5009695;28;20128;-64
2023/05/06 07:19:57;;;;;;;1.98;0.90;;;20.50;60.50;;;;;;5011934;28;20073;-65
2023/05/06 07:22:22;;;;;;;2.65;0.93;;;20.50;60.50;;;;;;5025795;28;20070;-64
2023/05/06 07:24:48;;;;;;;1.50;0.80;;;20.60;60.60;;;;;;5029241;28;20034;-65
2023/05/06 07:27:13;;;;;;;1.80;0.85;;;20.60;60.60;;;;;;5026194;28;20119;-65
2023/05/06 07:29:40;;;;;;;2.67;1.10;;;20.60;60.60;;;;;;5011654;28;20042;-65
2023/05/06 07:32:05;;;;;;;4.53;1.00;;;20.60;60.60;;;;;;5012949;28;20056;-64
2023/05/06 07:34:32;;;;;;;1.85;1.00;;;20.60;60.50;;;;;;4993501;28;20070;-64
2023/05/06 07:36:58;;;;;;;2.95;1.10;;;20.70;60.60;;;;;;4992649;28;20508;-64
2023/05/06 07:39:24;;;;;;;2.17;0.88;;;20.70;60.60;;;;;;4993303;28;20129;-64
2023/05/06 07:41:50;;;;;;;1.98;0.95;;;20.70;60.70;;;;;;4992619;28;20133;-64
2023/05/06 07:44:16;;;;;;;2.80;0.80;;;20.70;60.70;;;;;;4991833;28;20069;-65
2023/05/06 07:46:41;;;;;;;3.25;0.90;;;20.70;60.70;;;;;;4993162;28;20046;-65
2023/05/06 07:49:07;;;;;;;1.35;0.77;;;20.70;60.80;;;;;;4990723;28;20043;-64
2023/05/06 07:51:32;;;;;;;1.55;0.90;;;20.70;60.80;;;;;;4993333;28;20089;-64
2023/05/06 07:53:58;;;;;;;3.63;0.90;;;20.70;60.80;;;;;;4993476;28;20397;-64
2023/05/06 07:56:23;;;;;;;3.83;1.00;;;20.70;60.80;;;;;;4992133;28;20150;-65
2023/05/06 07:58:49;;;;;;;2.00;0.80;;;20.70;60.80;;;;;;4993059;28;20101;-64
2023/05/06 08:01:15;;;;;;;2.63;0.85;;;20.70;60.90;;;;;;4992556;28;20089;-65
2023/05/06 08:03:40;;;;;;;2.65;1.08;;;20.80;60.90;;;;;;4990724;28;20046;-66
2023/05/06 08:06:07;;;;;;;2.22;1.00;;;20.80;61.00;;;;;;4992869;28;20038;-65
2023/05/06 08:08:32;;;;;;;2.58;0.90;;;20.80;61.00;;;;;;5009181;28;20041;-65
2023/05/06 08:10:58;;;;;;;3.53;0.90;;;20.80;61.00;;;;;;5011809;28;20049;-65
2023/05/06 08:13:24;;;;;;;1.55;0.63;;;20.80;61.00;;;;;;5011865;28;20038;-65
2023/05/06 08:15:50;;;;;;;1.50;0.80;;;20.80;61.00;;;;;;5012828;28;20038;-65
2023/05/06 08:18:16;;;;;;;2.90;1.05;;;20.80;61.00;;;;;;5011304;28;20382;-65
2023/05/06 08:20:41;;;;;;;2.40;0.90;;;20.90;61.10;;;;;;5012603;28;20095;-65
2023/05/06 08:23:07;;;;;;;2.58;1.17;;;20.90;61.10;;;;;;5012280;28;20466;-66
2023/05/06 08:25:32;;;;;;;1.85;0.85;;;20.90;61.10;;;;;;5010843;28;20053;-65
2023/05/06 08:27:58;;;;;;;3.25;1.10;;;20.90;61.10;;;;;;5003115;28;20048;-65
2023/05/06 08:30:24;;;;;;;1.35;0.70;;;20.90;61.10;;;;;;5003215;28;20128;-65
2023/05/06 08:32:49;;;;;;;3.30;0.90;;;21.00;61.20;;;;;;4999704;28;20181;-65
2023/05/06 08:35:15;;;;;;;2.13;1.13;;;21.00;61.10;;;;;;5011103;28;20081;-65
2023/05/06 08:37:40;;;;;;;1.90;1.00;;;21.00;61.10;;;;;;5012011;28;20042;-66
2023/05/06 08:40:14;;;;;;;2.08;1.10;;;21.00;61.00;;;;;;5010055;28;20042;-66
2023/05/06 08:42:39;;;;;;;2.47;0.90;;;21.00;61.00;;;;;;4980741;28;20501;-66
2023/05/06 08:45:06;;;;;;;2.80;1.20;;;21.00;61.00;;;;;;4994638;28;20047;-66
2023/05/06 08:47:31;;;;;;;2.13;0.80;;;21.00;61.00;;;;;;5031610;28;20045;-66
2023/05/06 08:49:57;;;;;;;2.40;1.20;;;21.10;61.10;;;;;;5002416;28;20485;-66
2023/05/06 08:52:22;;;;;;;2.13;1.00;;;21.10;61.00;;;;;;5028601;28;20432;-66
2023/05/06 08:54:50;;;;;;;2.45;1.00;;;21.10;61.00;;;;;;5016347;28;20348;-66
2023/05/06 08:57:15;;;;;;;1.50;0.90;;;21.10;61.00;;;;;;5004354;28;20394;-67
2023/05/06 08:59:41;;;;;;;2.55;1.00;;;21.10;60.90;;;;;;5008812;28;20058;-67
2023/05/06 09:02:07;;;;;;;2.15;1.02;;;21.20;60.90;;;;;;5019625;28;20331;-66
2023/05/06 09:04:32;;;;;;;1.40;0.88;;;21.20;61.00;;;;;;5004759;28;20486;-66
2023/05/06 09:06:58;;;;;;;2.30;1.10;;;21.20;61.00;;;;;;5004971;28;20041;-65
2023/05/06 09:09:24;;;;;;;2.70;1.13;;;21.20;60.90;;;;;;5001670;28;20061;-65
2023/05/06 09:11:52;;;;;;;3.72;1.20;;;21.20;60.80;;;;;;4995475;28;20038;-66
2023/05/06 09:14:19;;;;;;;2.50;1.35;;;21.20;60.90;;;;;;4995047;28;20556;-65
2023/05/06 09:16:46;;;;;;;3.53;1.10;;;21.20;60.90;;;;;;5021707;28;20073;-66
2023/05/06 09:19:12;;;;;;;4.28;1.20;;;21.20;60.90;;;;;;5030241;28;20038;-66
2023/05/06 09:21:40;;;;;;;1.98;1.20;;;21.20;60.70;;;;;;5034473;28;20164;-66
2023/05/06 09:24:07;;;;;;;3.63;1.17;;;21.30;60.70;;;;;;5031455;28;20041;-68
2023/05/06 09:26:33;;;;;;;2.28;1.15;;;21.30;60.70;;;;;;5034572;28;20037;-66
2023/05/06 09:28:59;;;;;;;3.65;1.50;;;21.30;60.60;;;;;;5024577;28;20482;-66
2023/05/06 09:31:25;;;;;;;3.08;1.40;;;21.30;60.60;;;;;;5007177;28;20139;-66
2023/05/06 09:33:52;;;;;;;6.38;1.63;;;21.30;60.70;;;;;;5008160;28;20061;-67
2023/05/06 09:36:18;;;;;;;4.47;1.50;;;21.30;60.60;;;;;;5028426;28;20408;-66
2023/05/06 09:38:43;;;;;;;4.53;1.70;;;21.30;60.50;;;;;;5030265;28;20548;-66
2023/05/06 09:41:10;;;;;;;7.70;1.70;;;21.30;60.70;;;;;;5033966;28;20476;-65
2023/05/06 09:43:36;;;;;;;7.68;1.70;;;21.30;60.80;;;;;;5029234;28;20034;-66
2023/05/06 09:46:04;;;;;;;5.57;1.70;;;21.30;61.00;;;;;;5032963;28;20076;-66
2023/05/06 09:48:30;;;;;;;4.80;1.58;;;21.30;61.00;;;;;;5013465;28;20452;-66
2023/05/06 09:50:56;;;;;;;8.38;1.88;;;21.30;60.90;;;;;;5034363;28;20489;-66
2023/05/06 09:53:22;;;;;;;4.40;1.35;;;21.30;61.00;;;;;;5031067;28;20050;-64
2023/05/06 09:55:48;;;;;;;5.45;1.58;;;21.30;61.10;;;;;;5016525;28;20077;-65
2023/05/06 09:58:15;;;;;;;9.38;1.67;;;21.40;61.10;;;;;;5019476;28;20460;-64
2023/05/06 10:00:41;;;;;;;5.85;1.85;;;21.40;61.20;;;;;;5024773;28;20057;-64
2023/05/06 10:03:06;;;;;;;6.22;1.83;;;21.40;61.20;;;;;;5019548;28;20040;-66
2023/05/06 10:05:32;;;;;;;5.18;1.90;;;21.40;61.20;;;;;;5029313;28;20452;-65
2023/05/06 10:07:57;;;;;;;5.97;1.42;;;21.40;61.10;;;;;;5016522;28;20046;-70
2023/05/06 10:10:23;;;;;;;6.70;1.88;;;21.40;61.10;;;;;;5014738;28;20048;-65
2023/05/06 10:12:48;;;;;;;6.38;1.90;;;21.40;61.10;;;;;;5011717;28;20038;-65
2023/05/06 10:15:14;;;;;;;8.35;1.77;;;21.40;61.10;;;;;;5006877;28;20045;-65
2023/05/06 10:17:40;;;;;;;7.90;1.73;;;21.40;61.20;;;;;;5011387;28;20038;-66
2023/05/06 10:20:06;;;;;;;6.22;1.67;;;21.50;61.10;;;;;;5013925;28;20401;-66
2023/05/06 10:22:58;;;;;;;8.90;2.08;;;21.50;60.90;;;;;;4996940;28;20129;-66
2023/05/06 10:25:34;;;;;;;6.93;1.90;;;21.50;60.80;;;;;;4978084;28;20061;-66
2023/05/06 10:28:00;;;;;;;6.32;1.75;;;21.50;60.90;;;;;;4995115;28;20051;-66
2023/05/06 10:30:26;;;;;;;9.75;2.00;;;21.50;60.90;;;;;;4993231;28;20129;-66
2023/05/06 10:32:51;;;;;;;12.27;1.85;;;21.50;60.80;;;;;;4976542;28;20125;-66
2023/05/06 10:35:46;;;;;;;7.10;2.20;;;21.40;60.80;;;;;;4993490;28;20059;-66
2023/05/06 10:38:30;;;;;;;9.98;2.30;;;21.50;60.80;;;;;;4992544;28;20044;-67
2023/05/06 10:40:55;;;;;;;6.43;2.35;;;21.50;60.90;;;;;;5008453;28;20048;-67
2023/05/06 10:43:31;;;;;;;6.32;2.20;;;21.50;60.90;;;;;;5029101;28;20046;-66
2023/05/06 10:46:09;;;;;;;5.22;1.98;;;21.50;60.90;;;;;;5012690;28;20046;-68
2023/05/06 10:48:36;;;;;;;5.07;2.08;;;21.50;60.90;;;;;;5030270;28;20469;-66
2023/05/06 10:51:16;;;;;;;5.70;2.25;;;21.50;60.90;;;;;;5025858;28;20113;-66
2023/05/06 10:54:01;;;;;;;10.80;2.95;;;21.50;60.90;;;;;;5005933;28;20042;-67
2023/05/06 10:56:31;;;;;;;5.50;1.95;;;21.50;60.90;;;;;;5028701;28;20038;-66
2023/05/06 10:59:02;;;;;;;7.93;2.10;;;21.40;60.90;;;;;;5027931;28;20046;-66
2023/05/06 11:01:28;;;;;;;6.32;2.03;;;21.40;60.90;;;;;;5029240;28;20052;-66
2023/05/06 11:03:54;;;;;;;8.75;2.30;;;21.40;60.90;;;;;;5029407;28;20046;-66
2023/05/06 11:06:34;;;;;;;4.25;2.03;;;21.40;61.00;;;;;;5014570;28;20481;-65
2023/05/06 11:09:00;;;;;;;6.22;2.25;;;21.40;61.00;;;;;;5017357;28;20041;-66
2023/05/06 11:11:49;;;;;;;6.78;2.22;;;21.40;61.10;;;;;;5026577;28;20121;-66
2023/05/06 11:14:24;;;;;;;6.13;1.92;;;21.40;61.10;;;;;;5024191;28;20033;-66
2023/05/06 11:16:50;;;;;;;5.03;1.98;;;21.40;61.10;;;;;;5006891;28;20107;-66
2023/05/06 11:19:26;;;;;;;8.77;2.50;;;21.40;61.10;;;;;;5026445;28;20038;-66
2023/05/06 11:21:56;;;;;;;9.23;2.47;;;21.40;61.10;;;;;;5029941;28;20053;-65
2023/05/06 11:24:41;;;;;;;8.90;2.28;;;21.40;61.10;;;;;;5026282;28;20042;-66
2023/05/06 11:27:08;;;;;;;8.15;2.42;;;21.40;61.00;;;;;;5031568;28;20111;-66
2023/05/06 11:29:33;;;;;;;5.57;1.88;;;21.40;60.90;;;;;;5029998;28;20113;-65
2023/05/06 11:31:59;;;;;;;8.95;2.22;;;21.50;61.00;;;;;;5031261;28;20041;-67
2023/05/06 11:34:30;;;;;;;5.78;2.33;;;21.50;61.00;;;;;;5026627;28;20444;-66
2023/05/06 11:36:57;;;;;;;6.78;2.50;;;21.50;61.60;;;;;;5031007;28;20050;-66
2023/05/06 11:39:24;;;;;;;6.83;2.33;;;21.50;61.00;;;;;;5028890;28;20046;-65
2023/05/06 11:41:52;;;;;;;5.60;2.40;;;21.50;60.90;;;;;;5022396;28;20030;-59
2023/05/06 11:44:24;;;;;;;7.93;2.20;;;21.50;60.90;;;;;;5029198;28;20076;-63
2023/05/06 11:46:51;;;;;;;9.05;2.40;;;21.50;60.80;;;;;;5023640;28;20312;-67
2023/05/06 11:49:16;;;;;;;7.32;2.13;;;21.50;60.90;;;;;;5028935;28;20033;-65
2023/05/06 11:51:42;;;;;;;5.75;2.05;;;21.50;60.80;;;;;;5022402;28;20046;-65
2023/05/06 11:54:09;;;;;;;7.30;2.17;;;21.50;60.80;;;;;;5031152;28;20041;-65
2023/05/06 11:57:06;;;;;;;6.15;2.38;;;21.50;60.80;;;;;;5023187;28;20049;-66
2023/05/06 11:59:33;;;;;;;7.15;2.00;;;21.50;60.70;;;;;;4970046;28;20492;-65
2023/05/06 12:02:03;;;;;;;7.85;2.10;;;21.50;60.80;;;;;;5024184;28;20116;-66
2023/05/06 12:04:42;;;;;;;11.02;2.53;;;21.50;60.70;;;;;;5028875;28;20115;-66
2023/05/06 12:07:09;;;;;;;8.38;2.42;;;21.50;60.70;;;;;;5030326;28;20046;-66
2023/05/06 12:09:35;;;;;;;8.75;2.95;;;21.50;60.70;;;;;;5027217;28;20050;-65
2023/05/06 12:12:02;;;;;;;8.05;2.15;;;21.50;60.70;;;;;;5030802;28;20033;-65
2023/05/06 12:14:27;;;;;;;6.80;1.98;;;21.50;60.70;;;;;;5029393;28;20042;-65
2023/05/06 12:16:53;;;;;;;6.10;2.17;;;21.50;60.80;;;;;;5029233;28;20042;-66
2023/05/06 12:19:18;;;;;;;5.72;2.10;;;21.50;60.70;;;;;;5030181;28;20033;-66
2023/05/06 12:21:45;;;;;;;5.72;2.47;;;21.60;60.60;;;;;;5004572;28;20076;-70
2023/05/06 12:24:11;;;;;;;6.70;2.08;;;21.60;60.40;;;;;;5030161;28;20041;-65
2023/05/06 12:26:47;;;;;;;4.47;1.92;;;21.70;60.40;;;;;;5030268;28;20038;-65
2023/05/06 12:29:16;;;;;;;8.32;2.28;;;21.80;60.20;;;;;;5030348;28;20462;-65
2023/05/06 12:31:42;;;;;;;8.23;2.65;;;21.80;60.20;;;;;;5021011;28;20064;-65
2023/05/06 12:34:07;;;;;;;10.52;3.38;;;21.80;60.00;;;;;;5031257;28;20041;-64
2023/05/06 12:36:38;;;;;;;13.57;4.10;;;21.80;59.80;;;;;;5023937;28;20048;-62
2023/05/06 12:39:04;;;;;;;11.80;4.13;;;21.80;59.50;;;;;;5030241;28;20056;-64
2023/05/06 12:41:42;;;;;;;14.65;4.13;;;21.70;59.30;;;;;;5029057;28;20080;-65
2023/05/06 12:44:26;;;;;;;;;;;21.70;59.20;;;;;;5034177;28;20042;-64
2023/05/06 12:46:52;;;;;;;9.35;3.35;;;21.70;59.20;;;;;;5029897;28;20422;-64